sensor_id;sensor_type;location;lat;lon;timestamp;pressure;altitude;pressure_sealevel;temperature;humidity
21203;BME280;10759;51.982;9.232;2023-02-23T00:02:06;99982.53;;;6.77;100.00
21203;BME280;10759;51.982;9.232;2023-02-23T00:04:34;99968.47;;;6.73;100.00
21203;BME280;10759;51.982;9.232;2023-02-23T00:07:05;99921.44;;;6.42;100.00
21203;BME280;10759;51.982;9.232;2023-02-23T00:09:33;99978.78;;;6.84;100.00
21203;BME280;10759;51.982;9.232;2023-02-23T00:12:03;99986.25;;;6.71;100.00
21203;BME280;10759;51.982;9.232;2023-02-23T00:14:34;99926.03;;;6.36;100.00
21203;BME280;10759;51.982;9.232;2023-02-23T00:17:04;99984.44;;;6.73;100.00
21203;BME280;10759;51.982;9.232;2023-02-23T00:19:36;99966.19;;;6.59;100.00
21203;BME280;10759;51.982;9.232;2023-02-23T00:22:05;99977.63;;;6.63;100.00
21203;BME280;10759;51.982;9.232;2023-02-23T00:24:33;99988.31;;;6.61;100.00
21203;BME280;10759;51.982;9.232;2023-02-23T00:27:03;99987.22;;;6.69;100.00
21203;BME280;10759;51.982;9.232;2023-02-23T00:29:32;99985.41;;;6.71;100.00
21203;BME280;10759;51.982;9.232;2023-02-23T00:32:05;99984.19;;;6.82;100.00
21203;BME280;10759;51.982;9.232;2023-02-23T00:34:33;99972.56;;;6.85;100.00
21203;BME280;10759;51.982;9.232;2023-02-23T00:37:02;99911.28;;;6.55;100.00
21203;BME280;10759;51.982;9.232;2023-02-23T00:39:32;99981.91;;;7.00;100.00
21203;BME280;10759;51.982;9.232;2023-02-23T00:42:00;99954.91;;;6.81;100.00
21203;BME280;10759;51.982;9.232;2023-02-23T00:44:29;99953.09;;;6.83;100.00
21203;BME280;10759;51.982;9.232;2023-02-23T00:46:59;99991.69;;;6.99;100.00
21203;BME280;10759;51.982;9.232;2023-02-23T00:49:27;99972.47;;;6.88;100.00
21203;BME280;10759;51.982;9.232;2023-02-23T00:51:55;99979.16;;;7.01;100.00
21203;BME280;10759;51.982;9.232;2023-02-23T00:54:23;99986.00;;;7.12;100.00
21203;BME280;10759;51.982;9.232;2023-02-23T00:56:53;99992.50;;;7.01;100.00
21203;BME280;10759;51.982;9.232;2023-02-23T00:59:21;99994.28;;;7.01;100.00
21203;BME280;10759;51.982;9.232;2023-02-23T01:01:50;99995.94;;;7.05;100.00
21203;BME280;10759;51.982;9.232;2023-02-23T01:04:20;99980.19;;;6.97;100.00
21203;BME280;10759;51.982;9.232;2023-02-23T01:06:49;99949.84;;;6.72;100.00
21203;BME280;10759;51.982;9.232;2023-02-23T01:09:17;100002.06;;;7.08;100.00
21203;BME280;10759;51.982;9.232;2023-02-23T01:11:55;100010.72;;;7.17;100.00
21203;BME280;10759;51.982;9.232;2023-02-23T01:14:27;100012.44;;;7.18;100.00
21203;BME280;10759;51.982;9.232;2023-02-23T01:16:56;100011.31;;;7.26;100.00
21203;BME280;10759;51.982;9.232;2023-02-23T01:19:24;100008.28;;;7.39;100.00
21203;BME280;10759;51.982;9.232;2023-02-23T01:21:52;100005.47;;;7.43;100.00
21203;BME280;10759;51.982;9.232;2023-02-23T01:24:20;100001.75;;;7.47;100.00
21203;BME280;10759;51.982;9.232;2023-02-23T01:26:48;100003.47;;;7.50;100.00
21203;BME280;10759;51.982;9.232;2023-02-23T01:29:17;99973.75;;;7.34;100.00
21203;BME280;10759;51.982;9.232;2023-02-23T01:31:46;100000.91;;;7.47;100.00
21203;BME280;10759;51.982;9.232;2023-02-23T01:34:18;100000.94;;;7.45;100.00
21203;BME280;10759;51.982;9.232;2023-02-23T01:36:47;100001.25;;;7.36;100.00
21203;BME280;10759;51.982;9.232;2023-02-23T01:39:17;100003.69;;;7.42;100.00
21203;BME280;10759;51.982;9.232;2023-02-23T01:41:46;99999.97;;;7.48;100.00
21203;BME280;10759;51.982;9.232;2023-02-23T01:47:20;99999.97;;;7.48;100.00
21203;BME280;10759;51.982;9.232;2023-02-23T01:49:48;99999.75;;;7.56;100.00
21203;BME280;10759;51.982;9.232;2023-02-23T01:52:17;100007.56;;;7.60;100.00
21203;BME280;10759;51.982;9.232;2023-02-23T01:54:49;99948.84;;;7.35;100.00
21203;BME280;10759;51.982;9.232;2023-02-23T01:57:20;99965.66;;;7.37;100.00
21203;BME280;10759;51.982;9.232;2023-02-23T01:59:50;99930.38;;;7.29;100.00
21203;BME280;10759;51.982;9.232;2023-02-23T02:02:27;99899.06;;;7.07;100.00
21203;BME280;10759;51.982;9.232;2023-02-23T02:05:00;99889.16;;;7.11;100.00
21203;BME280;10759;51.982;9.232;2023-02-23T02:07:32;99997.34;;;7.74;100.00
21203;BME280;10759;51.982;9.232;2023-02-23T02:10:02;99998.00;;;7.83;100.00
21203;BME280;10759;51.982;9.232;2023-02-23T02:12:50;99994.75;;;7.73;100.00
21203;BME280;10759;51.982;9.232;2023-02-23T02:15:20;99968.25;;;7.67;100.00
21203;BME280;10759;51.982;9.232;2023-02-23T02:18:00;99981.41;;;7.73;100.00
21203;BME280;10759;51.982;9.232;2023-02-23T02:21:01;99965.69;;;7.64;100.00
21203;BME280;10759;51.982;9.232;2023-02-23T02:24:03;99888.44;;;7.06;100.00
21203;BME280;10759;51.982;9.232;2023-02-23T02:26:47;99990.97;;;7.52;100.00
21203;BME280;10759;51.982;9.232;2023-02-23T02:29:50;99884.22;;;6.99;100.00
21203;BME280;10759;51.982;9.232;2023-02-23T02:32:56;99994.75;;;7.73;100.00
21203;BME280;10759;51.982;9.232;2023-02-23T02:35:48;99987.78;;;7.67;100.00
21203;BME280;10759;51.982;9.232;2023-02-23T02:38:33;99988.72;;;7.66;100.00
21203;BME280;10759;51.982;9.232;2023-02-23T02:41:07;99993.97;;;7.69;100.00
21203;BME280;10759;51.982;9.232;2023-02-23T02:43:47;99996.44;;;7.76;100.00
21203;BME280;10759;51.982;9.232;2023-02-23T02:46:20;99964.88;;;7.62;100.00
21203;BME280;10759;51.982;9.232;2023-02-23T02:48:54;99994.81;;;7.70;100.00
21203;BME280;10759;51.982;9.232;2023-02-23T02:51:35;99999.00;;;7.79;100.00
21203;BME280;10759;51.982;9.232;2023-02-23T02:54:12;99988.28;;;7.80;100.00
21203;BME280;10759;51.982;9.232;2023-02-23T02:56:42;99994.66;;;7.76;100.00
21203;BME280;10759;51.982;9.232;2023-02-23T02:59:15;99978.63;;;7.76;100.00
21203;BME280;10759;51.982;9.232;2023-02-23T03:02:01;99975.25;;;7.71;100.00
21203;BME280;10759;51.982;9.232;2023-02-23T03:04:47;99989.00;;;7.85;100.00
21203;BME280;10759;51.982;9.232;2023-02-23T03:07:37;99990.78;;;7.85;100.00
21203;BME280;10759;51.982;9.232;2023-02-23T03:10:31;99982.38;;;7.97;100.00
21203;BME280;10759;51.982;9.232;2023-02-23T03:13:26;99960.28;;;7.93;100.00
21203;BME280;10759;51.982;9.232;2023-02-23T03:16:24;99967.25;;;7.98;100.00
21203;BME280;10759;51.982;9.232;2023-02-23T03:19:20;99977.03;;;8.24;100.00
21203;BME280;10759;51.982;9.232;2023-02-23T03:22:13;99979.44;;;8.31;100.00
21203;BME280;10759;51.982;9.232;2023-02-23T03:25:04;99959.91;;;8.56;100.00
21203;BME280;10759;51.982;9.232;2023-02-23T03:27:54;99963.44;;;8.56;100.00
21203;BME280;10759;51.982;9.232;2023-02-23T03:30:47;99940.38;;;8.54;100.00
21203;BME280;10759;51.982;9.232;2023-02-23T03:33:40;99954.00;;;8.71;100.00
21203;BME280;10759;51.982;9.232;2023-02-23T03:36:32;99969.75;;;8.54;100.00
21203;BME280;10759;51.982;9.232;2023-02-23T03:39:23;99956.94;;;8.38;100.00
21203;BME280;10759;51.982;9.232;2023-02-23T03:42:15;99960.16;;;8.23;100.00
21203;BME280;10759;51.982;9.232;2023-02-23T03:45:06;99954.28;;;8.12;100.00
21203;BME280;10759;51.982;9.232;2023-02-23T03:47:56;99984.69;;;8.34;100.00
21203;BME280;10759;51.982;9.232;2023-02-23T03:50:46;99937.69;;;8.04;100.00
21203;BME280;10759;51.982;9.232;2023-02-23T03:53:37;99980.75;;;8.20;100.00
21203;BME280;10759;51.982;9.232;2023-02-23T03:56:27;99980.63;;;8.23;100.00
21203;BME280;10759;51.982;9.232;2023-02-23T03:59:14;99982.09;;;8.31;100.00
21203;BME280;10759;51.982;9.232;2023-02-23T04:02:04;99988.38;;;8.30;100.00
21203;BME280;10759;51.982;9.232;2023-02-23T04:04:53;99983.75;;;8.35;100.00
21203;BME280;10759;51.982;9.232;2023-02-23T04:07:40;99981.50;;;8.50;100.00
21203;BME280;10759;51.982;9.232;2023-02-23T04:10:29;99957.56;;;8.47;100.00
21203;BME280;10759;51.982;9.232;2023-02-23T04:13:18;99990.09;;;8.58;100.00
21203;BME280;10759;51.982;9.232;2023-02-23T04:15:48;99984.16;;;8.50;100.00
21203;BME280;10759;51.982;9.232;2023-02-23T04:18:21;99984.16;;;8.50;100.00
21203;BME280;10759;51.982;9.232;2023-02-23T04:20:50;99980.66;;;8.48;100.00
21203;BME280;10759;51.982;9.232;2023-02-23T04:23:18;99978.94;;;8.47;100.00
21203;BME280;10759;51.982;9.232;2023-02-23T04:25:48;99977.97;;;8.49;100.00
21203;BME280;10759;51.982;9.232;2023-02-23T04:28:16;99964.00;;;8.41;100.00
21203;BME280;10759;51.982;9.232;2023-02-23T04:30:44;99970.94;;;8.47;100.00
21203;BME280;10759;51.982;9.232;2023-02-23T04:33:12;99898.88;;;8.20;100.00
21203;BME280;10759;51.982;9.232;2023-02-23T04:35:42;99978.59;;;8.56;100.00
21203;BME280;10759;51.982;9.232;2023-02-23T04:38:10;99988.56;;;8.51;100.00
21203;BME280;10759;51.982;9.232;2023-02-23T04:40:38;99985.06;;;8.49;100.00
21203;BME280;10759;51.982;9.232;2023-02-23T04:43:05;99988.88;;;8.42;100.00
21203;BME280;10759;51.982;9.232;2023-02-23T04:45:33;99962.53;;;8.31;100.00
21203;BME280;10759;51.982;9.232;2023-02-23T04:48:01;99986.94;;;8.47;100.00
21203;BME280;10759;51.982;9.232;2023-02-23T04:50:29;99988.69;;;8.48;100.00
21203;BME280;10759;51.982;9.232;2023-02-23T04:52:59;99994.13;;;8.45;100.00
21203;BME280;10759;51.982;9.232;2023-02-23T04:55:27;99994.06;;;8.46;100.00
21203;BME280;10759;51.982;9.232;2023-02-23T04:57:57;99946.13;;;8.16;100.00
21203;BME280;10759;51.982;9.232;2023-02-23T05:00:26;99913.81;;;7.99;100.00
21203;BME280;10759;51.982;9.232;2023-02-23T05:02:55;99993.00;;;8.52;100.00
21203;BME280;10759;51.982;9.232;2023-02-23T05:05:22;99989.78;;;8.42;100.00
21203;BME280;10759;51.982;9.232;2023-02-23T05:07:50;99978.69;;;8.28;100.00
21203;BME280;10759;51.982;9.232;2023-02-23T05:10:21;99993.59;;;8.33;100.00
21203;BME280;10759;51.982;9.232;2023-02-23T05:12:49;99991.88;;;8.32;100.00
21203;BME280;10759;51.982;9.232;2023-02-23T05:15:17;99997.28;;;8.29;100.00
21203;BME280;10759;51.982;9.232;2023-02-23T05:17:45;99998.28;;;8.27;100.00
21203;BME280;10759;51.982;9.232;2023-02-23T05:20:13;99998.09;;;8.31;100.00
21203;BME280;10759;51.982;9.232;2023-02-23T05:22:41;99996.41;;;8.29;100.00
21203;BME280;10759;51.982;9.232;2023-02-23T05:25:09;99998.22;;;8.28;100.00
21203;BME280;10759;51.982;9.232;2023-02-23T05:27:39;99994.84;;;8.23;100.00
21203;BME280;10759;51.982;9.232;2023-02-23T05:30:08;99980.13;;;8.11;100.00
21203;BME280;10759;51.982;9.232;2023-02-23T05:32:36;99993.19;;;8.19;100.00
21203;BME280;10759;51.982;9.232;2023-02-23T05:35:04;99993.16;;;8.21;100.00
21203;BME280;10759;51.982;9.232;2023-02-23T05:37:33;99994.09;;;8.20;100.00
21203;BME280;10759;51.982;9.232;2023-02-23T05:40:01;99942.75;;;7.85;100.00
21203;BME280;10759;51.982;9.232;2023-02-23T05:42:29;99995.03;;;8.17;100.00
21203;BME280;10759;51.982;9.232;2023-02-23T05:44:58;99993.31;;;8.16;100.00
21203;BME280;10759;51.982;9.232;2023-02-23T05:47:26;99997.78;;;8.15;100.00
21203;BME280;10759;51.982;9.232;2023-02-23T05:49:54;99899.03;;;7.64;100.00
21203;BME280;10759;51.982;9.232;2023-02-23T05:52:22;99989.63;;;8.20;100.00
21203;BME280;10759;51.982;9.232;2023-02-23T05:54:50;99993.19;;;8.19;100.00
21203;BME280;10759;51.982;9.232;2023-02-23T05:57:18;99993.28;;;8.17;100.00
21203;BME280;10759;51.982;9.232;2023-02-23T05:59:45;99990.69;;;8.14;100.00
21203;BME280;10759;51.982;9.232;2023-02-23T06:02:15;99977.94;;;7.98;100.00
21203;BME280;10759;51.982;9.232;2023-02-23T06:04:43;100002.41;;;8.10;100.00
21203;BME280;10759;51.982;9.232;2023-02-23T06:07:12;99928.88;;;7.75;100.00
21203;BME280;10759;51.982;9.232;2023-02-23T06:09:41;99962.78;;;7.98;100.00
21203;BME280;10759;51.982;9.232;2023-02-23T06:12:10;99998.66;;;8.16;100.00
21203;BME280;10759;51.982;9.232;2023-02-23T06:14:38;99999.63;;;8.13;100.00
21203;BME280;10759;51.982;9.232;2023-02-23T06:17:06;99779.13;;;6.81;100.00
21203;BME280;10759;51.982;9.232;2023-02-23T06:19:35;99998.75;;;8.13;100.00
21203;BME280;10759;51.982;9.232;2023-02-23T06:22:03;99977.75;;;8.02;100.00
21203;BME280;10759;51.982;9.232;2023-02-23T06:24:31;99997.91;;;8.12;100.00
21203;BME280;10759;51.982;9.232;2023-02-23T06:27:00;99991.88;;;8.06;100.00
21203;BME280;10759;51.982;9.232;2023-02-23T06:29:27;100005.00;;;8.12;100.00
21203;BME280;10759;51.982;9.232;2023-02-23T06:31:55;100006.81;;;8.11;100.00
21203;BME280;10759;51.982;9.232;2023-02-23T06:34:26;99985.19;;;7.92;100.00
21203;BME280;10759;51.982;9.232;2023-02-23T06:36:55;99999.03;;;8.05;100.00
21203;BME280;10759;51.982;9.232;2023-02-23T06:39:23;100011.28;;;8.11;100.00
21203;BME280;10759;51.982;9.232;2023-02-23T06:41:51;100020.78;;;8.20;100.00
21203;BME280;10759;51.982;9.232;2023-02-23T06:44:19;100026.28;;;8.15;100.00
21203;BME280;10759;51.982;9.232;2023-02-23T06:46:48;100028.16;;;8.11;100.00
21203;BME280;10759;51.982;9.232;2023-02-23T06:49:16;100032.63;;;8.11;100.00
21203;BME280;10759;51.982;9.232;2023-02-23T06:51:44;100031.63;;;8.15;100.00
21203;BME280;10759;51.982;9.232;2023-02-23T06:54:13;100001.19;;;7.92;100.00
21203;BME280;10759;51.982;9.232;2023-02-23T06:56:41;100007.94;;;8.04;100.00
21203;BME280;10759;51.982;9.232;2023-02-23T06:59:10;100035.91;;;8.19;100.00
21203;BME280;10759;51.982;9.232;2023-02-23T07:01:37;99952.38;;;7.64;100.00
21203;BME280;10759;51.982;9.232;2023-02-23T07:04:05;100042.28;;;8.15;100.00
21203;BME280;10759;51.982;9.232;2023-02-23T07:06:33;100041.25;;;8.19;100.00
21203;BME280;10759;51.982;9.232;2023-02-23T07:09:01;100017.78;;;8.02;100.00
21203;BME280;10759;51.982;9.232;2023-02-23T07:11:30;100049.25;;;8.19;100.00
21203;BME280;10759;51.982;9.232;2023-02-23T07:13:59;100047.41;;;8.21;100.00
21203;BME280;10759;51.982;9.232;2023-02-23T07:16:27;100054.66;;;8.17;100.00
21203;BME280;10759;51.982;9.232;2023-02-23T07:18:55;100057.38;;;8.16;100.00
21203;BME280;10759;51.982;9.232;2023-02-23T07:21:23;100059.03;;;8.20;100.00
21203;BME280;10759;51.982;9.232;2023-02-23T07:23:52;100057.19;;;8.22;100.00
21203;BME280;10759;51.982;9.232;2023-02-23T07:26:20;100056.28;;;8.22;100.00
21203;BME280;10759;51.982;9.232;2023-02-23T07:28:49;100067.75;;;8.25;100.00
21203;BME280;10759;51.982;9.232;2023-02-23T07:31:19;100066.88;;;8.25;100.00
21203;BME280;10759;51.982;9.232;2023-02-23T07:33:48;100037.00;;;8.13;100.00
21203;BME280;10759;51.982;9.232;2023-02-23T07:36:16;100062.28;;;8.28;100.00
21203;BME280;10759;51.982;9.232;2023-02-23T07:38:44;100050.06;;;8.21;100.00
21203;BME280;10759;51.982;9.232;2023-02-23T07:41:12;100059.47;;;8.33;100.00
21203;BME280;10759;51.982;9.232;2023-02-23T07:43:40;100067.44;;;8.34;100.00
21203;BME280;10759;51.982;9.232;2023-02-23T07:46:09;100044.75;;;8.21;100.00
21203;BME280;10759;51.982;9.232;2023-02-23T07:48:37;100060.44;;;8.30;100.00
21203;BME280;10759;51.982;9.232;2023-02-23T07:51:08;100002.03;;;7.94;100.00
21203;BME280;10759;51.982;9.232;2023-02-23T07:53:37;100076.38;;;8.33;100.00
21203;BME280;10759;51.982;9.232;2023-02-23T07:56:06;100012.63;;;7.98;100.00
21203;BME280;10759;51.982;9.232;2023-02-23T07:58:35;100079.84;;;8.35;100.00
21203;BME280;10759;51.982;9.232;2023-02-23T08:01:04;99966.31;;;7.72;100.00
21203;BME280;10759;51.982;9.232;2023-02-23T08:03:33;100082.41;;;8.38;100.00
21203;BME280;10759;51.982;9.232;2023-02-23T08:06:01;100078.75;;;8.43;100.00
21203;BME280;10759;51.982;9.232;2023-02-23T08:08:29;100078.88;;;8.40;100.00
21203;BME280;10759;51.982;9.232;2023-02-23T08:11:00;100058.19;;;8.18;100.00
21203;BME280;10759;51.982;9.232;2023-02-23T08:13:29;100079.19;;;8.29;100.00
21203;BME280;10759;51.982;9.232;2023-02-23T08:15:58;100090.53;;;8.35;100.00
21203;BME280;10759;51.982;9.232;2023-02-23T08:18:26;100083.81;;;8.24;100.00
21203;BME280;10759;51.982;9.232;2023-02-23T08:20:58;100084.75;;;8.23;100.00
21203;BME280;10759;51.982;9.232;2023-02-23T08:23:28;100077.75;;;8.18;100.00
21203;BME280;10759;51.982;9.232;2023-02-23T08:25:56;100093.47;;;8.28;100.00
21203;BME280;10759;51.982;9.232;2023-02-23T08:28:25;100088.16;;;8.26;100.00
21203;BME280;10759;51.982;9.232;2023-02-23T08:30:53;100088.31;;;8.22;100.00
21203;BME280;10759;51.982;9.232;2023-02-23T08:33:22;100091.41;;;8.36;100.00
21203;BME280;10759;51.982;9.232;2023-02-23T08:35:50;100067.84;;;8.22;100.00
21203;BME280;10759;51.982;9.232;2023-02-23T08:38:20;100020.66;;;7.96;100.00
21203;BME280;10759;51.982;9.232;2023-02-23T08:40:48;100100.22;;;8.40;100.00
21203;BME280;10759;51.982;9.232;2023-02-23T08:43:16;100102.91;;;8.40;100.00
21203;BME280;10759;51.982;9.232;2023-02-23T08:45:44;100101.03;;;8.42;100.00
21203;BME280;10759;51.982;9.232;2023-02-23T08:48:12;100102.75;;;8.44;100.00
21203;BME280;10759;51.982;9.232;2023-02-23T08:50:39;100084.34;;;8.35;100.00
21203;BME280;10759;51.982;9.232;2023-02-23T08:53:07;100097.22;;;8.49;100.00
21203;BME280;10759;51.982;9.232;2023-02-23T08:55:38;100101.59;;;8.51;100.00
21203;BME280;10759;51.982;9.232;2023-02-23T08:58:07;100096.31;;;8.50;100.00
21203;BME280;10759;51.982;9.232;2023-02-23T09:00:36;100106.63;;;8.60;100.00
21203;BME280;10759;51.982;9.232;2023-02-23T09:03:04;100104.81;;;8.61;100.00
21203;BME280;10759;51.982;9.232;2023-02-23T09:05:35;100098.47;;;8.65;100.00
21203;BME280;10759;51.982;9.232;2023-02-23T09:08:03;100096.50;;;8.70;100.00
21203;BME280;10759;51.982;9.232;2023-02-23T09:10:32;100105.88;;;8.57;100.00
21203;BME280;10759;51.982;9.232;2023-02-23T09:13:02;100105.88;;;8.57;100.00
21203;BME280;10759;51.982;9.232;2023-02-23T09:15:30;100110.00;;;8.66;100.00
21203;BME280;10759;51.982;9.232;2023-02-23T09:17:59;100110.69;;;8.72;100.00
21203;BME280;10759;51.982;9.232;2023-02-23T09:20:27;100114.13;;;8.76;100.00
21203;BME280;10759;51.982;9.232;2023-02-23T09:22:55;100121.94;;;8.82;100.00
21203;BME280;10759;51.982;9.232;2023-02-23T09:25:23;100115.72;;;8.81;100.00
21203;BME280;10759;51.982;9.232;2023-02-23T09:27:54;100120.78;;;8.64;100.00
21203;BME280;10759;51.982;9.232;2023-02-23T09:30:25;100120.78;;;8.64;100.00
21203;BME280;10759;51.982;9.232;2023-02-23T09:32:54;100126.91;;;8.66;100.00
21203;BME280;10759;51.982;9.232;2023-02-23T09:35:23;100114.50;;;8.65;100.00
21203;BME280;10759;51.982;9.232;2023-02-23T09:37:53;100123.34;;;8.67;100.00
21203;BME280;10759;51.982;9.232;2023-02-23T09:40:23;100040.34;;;8.20;100.00
21203;BME280;10759;51.982;9.232;2023-02-23T09:42:52;100123.09;;;8.73;100.00
21203;BME280;10759;51.982;9.232;2023-02-23T09:45:32;100126.59;;;8.75;100.00
21203;BME280;10759;51.982;9.232;2023-02-23T09:48:11;100093.34;;;8.59;100.00
21203;BME280;10759;51.982;9.232;2023-02-23T09:50:45;100122.53;;;8.90;100.00
21203;BME280;10759;51.982;9.232;2023-02-23T09:53:25;100121.34;;;8.99;100.00
21203;BME280;10759;51.982;9.232;2023-02-23T09:55:56;100122.63;;;9.12;100.00
21203;BME280;10759;51.982;9.232;2023-02-23T09:58:25;100119.97;;;9.12;100.00
21203;BME280;10759;51.982;9.232;2023-02-23T10:01:08;100126.00;;;9.17;100.00
21203;BME280;10759;51.982;9.232;2023-02-23T10:03:41;100129.22;;;9.27;100.00
21203;BME280;10759;51.982;9.232;2023-02-23T10:06:16;100126.34;;;9.33;100.00
21203;BME280;10759;51.982;9.232;2023-02-23T10:08:47;100127.09;;;9.37;100.00
21203;BME280;10759;51.982;9.232;2023-02-23T10:11:23;100110.22;;;9.35;100.00
21203;BME280;10759;51.982;9.232;2023-02-23T10:14:02;100077.06;;;9.15;100.00
21203;BME280;10759;51.982;9.232;2023-02-23T10:16:40;100118.72;;;9.46;100.00
21203;BME280;10759;51.982;9.232;2023-02-23T10:19:15;100125.94;;;9.44;100.00
21203;BME280;10759;51.982;9.232;2023-02-23T10:21:49;100133.38;;;9.36;100.00
21203;BME280;10759;51.982;9.232;2023-02-23T10:24:20;100132.50;;;9.35;100.00
21203;BME280;10759;51.982;9.232;2023-02-23T10:26:53;100120.84;;;9.38;100.00
21203;BME280;10759;51.982;9.232;2023-02-23T10:29:26;100116.72;;;9.28;100.00
21203;BME280;10759;51.982;9.232;2023-02-23T10:31:59;100125.28;;;9.37;100.00
21203;BME280;10759;51.982;9.232;2023-02-23T10:34:29;100051.53;;;9.08;100.00
21203;BME280;10759;51.982;9.232;2023-02-23T10:36:59;100078.44;;;9.27;100.00
21203;BME280;10759;51.982;9.232;2023-02-23T10:39:28;100110.91;;;9.16;100.00
21203;BME280;10759;51.982;9.232;2023-02-23T10:41:58;100105.31;;;9.22;100.00
21203;BME280;10759;51.982;9.232;2023-02-23T10:44:27;100051.31;;;9.13;100.00
21203;BME280;10759;51.982;9.232;2023-02-23T10:47:00;100133.72;;;9.74;100.00
21203;BME280;10759;51.982;9.232;2023-02-23T10:49:37;100133.84;;;9.71;100.00
21203;BME280;10759;51.982;9.232;2023-02-23T10:52:09;100062.34;;;9.29;100.00
21203;BME280;10759;51.982;9.232;2023-02-23T10:54:43;100121.75;;;9.60;100.00
21203;BME280;10759;51.982;9.232;2023-02-23T10:57:22;100133.59;;;9.77;100.00
21203;BME280;10759;51.982;9.232;2023-02-23T11:00:03;100097.78;;;9.57;100.00
21203;BME280;10759;51.982;9.232;2023-02-23T11:02:34;100134.72;;;9.71;100.00
21203;BME280;10759;51.982;9.232;2023-02-23T11:05:03;100131.81;;;9.77;100.00
21203;BME280;10759;51.982;9.232;2023-02-23T11:07:33;100130.00;;;9.78;100.00
21203;BME280;10759;51.982;9.232;2023-02-23T11:10:23;100129.06;;;9.79;100.00
21203;BME280;10759;51.982;9.232;2023-02-23T11:12:52;100065.41;;;9.41;100.00
21203;BME280;10759;51.982;9.232;2023-02-23T11:15:26;100127.69;;;9.92;100.00
21203;BME280;10759;51.982;9.232;2023-02-23T11:18:19;100134.63;;;9.96;100.00
21203;BME280;10759;51.982;9.232;2023-02-23T11:20:48;100132.28;;;10.10;100.00
21203;BME280;10759;51.982;9.232;2023-02-23T11:23:19;100128.25;;;10.00;100.00
21203;BME280;10759;51.982;9.232;2023-02-23T11:25:51;100115.66;;;10.02;100.00
21203;BME280;10759;51.982;9.232;2023-02-23T11:28:26;100118.72;;;10.15;100.00
21203;BME280;10759;51.982;9.232;2023-02-23T11:30:57;100123.00;;;9.97;100.00
21203;BME280;10759;51.982;9.232;2023-02-23T11:33:32;100118.41;;;10.01;100.00
21203;BME280;10759;51.982;9.232;2023-02-23T11:36:15;100121.34;;;9.95;100.00
21203;BME280;10759;51.982;9.232;2023-02-23T11:38:44;100094.28;;;9.79;100.00
21203;BME280;10759;51.982;9.232;2023-02-23T11:41:22;100117.66;;;9.97;100.00
21203;BME280;10759;51.982;9.232;2023-02-23T11:43:56;100116.97;;;9.92;100.00
21203;BME280;10759;51.982;9.232;2023-02-23T11:46:25;100117.84;;;9.93;100.00
21203;BME280;10759;51.982;9.232;2023-02-23T11:48:59;100115.47;;;9.85;100.00
21203;BME280;10759;51.982;9.232;2023-02-23T11:51:30;100103.13;;;9.81;100.00
21203;BME280;10759;51.982;9.232;2023-02-23T11:53:58;100118.69;;;9.93;100.00
21203;BME280;10759;51.982;9.232;2023-02-23T11:56:28;100043.53;;;9.54;100.00
21203;BME280;10759;51.982;9.232;2023-02-23T11:59:00;100107.88;;;9.96;100.00
21203;BME280;10759;51.982;9.232;2023-02-23T12:01:38;100110.53;;;9.96;100.00
21203;BME280;10759;51.982;9.232;2023-02-23T12:04:25;100095.06;;;9.82;100.00
21203;BME280;10759;51.982;9.232;2023-02-23T12:07:18;100105.31;;;9.93;100.00
21203;BME280;10759;51.982;9.232;2023-02-23T12:09:56;100083.84;;;9.73;100.00
21203;BME280;10759;51.982;9.232;2023-02-23T12:12:27;100075.91;;;9.70;100.00
21203;BME280;10759;51.982;9.232;2023-02-23T12:15:03;100097.06;;;9.99;100.00
21203;BME280;10759;51.982;9.232;2023-02-23T12:17:37;100074.00;;;9.73;100.00
21203;BME280;10759;51.982;9.232;2023-02-23T12:20:15;100039.13;;;9.53;100.00
21203;BME280;10759;51.982;9.232;2023-02-23T12:22:50;100096.13;;;9.77;100.00
21203;BME280;10759;51.982;9.232;2023-02-23T12:25:22;100031.50;;;9.42;100.00
21203;BME280;10759;51.982;9.232;2023-02-23T12:27:58;100068.19;;;9.62;100.00
21203;BME280;10759;51.982;9.232;2023-02-23T12:30:47;100084.06;;;9.66;100.00
21203;BME280;10759;51.982;9.232;2023-02-23T12:33:20;100095.44;;;9.72;100.00
21203;BME280;10759;51.982;9.232;2023-02-23T12:36:00;100039.69;;;9.37;100.00
21203;BME280;10759;51.982;9.232;2023-02-23T12:38:42;100035.03;;;9.42;100.00
21203;BME280;10759;51.982;9.232;2023-02-23T12:41:18;100093.41;;;9.78;100.00
21203;BME280;10759;51.982;9.232;2023-02-23T12:43:50;100094.53;;;9.73;100.00
21203;BME280;10759;51.982;9.232;2023-02-23T12:46:25;100085.69;;;9.71;100.00
21203;BME280;10759;51.982;9.232;2023-02-23T12:49:01;100090.19;;;9.70;100.00
21203;BME280;10759;51.982;9.232;2023-02-23T12:51:33;100086.13;;;9.82;100.00
21203;BME280;10759;51.982;9.232;2023-02-23T12:54:03;100094.97;;;9.84;100.00
21203;BME280;10759;51.982;9.232;2023-02-23T12:56:37;100054.75;;;9.63;100.00
21203;BME280;10759;51.982;9.232;2023-02-23T12:59:18;100097.09;;;9.76;100.00
21203;BME280;10759;51.982;9.232;2023-02-23T13:01:53;100075.69;;;9.52;100.00
21203;BME280;10759;51.982;9.232;2023-02-23T13:04:49;100097.94;;;9.76;100.00
21203;BME280;10759;51.982;9.232;2023-02-23T13:07:25;100101.50;;;9.77;100.00
21203;BME280;10759;51.982;9.232;2023-02-23T13:10:05;100102.03;;;9.63;100.00
21203;BME280;10759;51.982;9.232;2023-02-23T13:12:47;100102.09;;;9.61;100.00
21203;BME280;10759;51.982;9.232;2023-02-23T13:15:23;100074.31;;;9.42;100.00
21203;BME280;10759;51.982;9.232;2023-02-23T13:17:58;100103.13;;;9.57;100.00
21203;BME280;10759;51.982;9.232;2023-02-23T13:20:31;100100.44;;;9.57;100.00
21203;BME280;10759;51.982;9.232;2023-02-23T13:23:09;100093.78;;;9.69;100.00
21203;BME280;10759;51.982;9.232;2023-02-23T13:25:44;100099.88;;;9.73;100.00
21203;BME280;10759;51.982;9.232;2023-02-23T13:28:19;100048.41;;;9.42;100.00
21203;BME280;10759;51.982;9.232;2023-02-23T13:30:48;100099.97;;;9.70;100.00